createdAt,value
2023-03-01T00:00:08.958Z,1014.22
2023-03-01T00:00:18.958Z,1014.29
2023-03-01T00:00:28.966Z,1014.31
2023-03-01T00:00:38.965Z,1014.28
2023-03-01T00:00:48.976Z,1014.30
2023-03-01T00:00:58.996Z,1014.29
2023-03-01T00:01:09.006Z,1014.25
2023-03-01T00:01:19.088Z,1014.30
2023-03-01T00:01:28.940Z,1014.28
2023-03-01T00:01:38.950Z,1014.29
2023-03-01T00:01:49.049Z,1014.27
2023-03-01T00:01:59.065Z,1014.32
2023-03-01T00:02:08.957Z,1014.30
2023-03-01T00:02:18.991Z,1014.31
2023-03-01T00:02:29.001Z,1014.32
2023-03-01T00:02:38.949Z,1014.29
2023-03-01T00:02:48.974Z,1014.32
2023-03-01T00:02:58.941Z,1014.31
2023-03-01T00:03:09.047Z,1014.26
2023-03-01T00:03:19.002Z,1014.32
2023-03-01T00:03:29.032Z,1014.35
2023-03-01T00:03:39.004Z,1014.34
2023-03-01T00:03:49.630Z,1014.35
2023-03-01T00:03:58.931Z,1014.26
2023-03-01T00:04:08.963Z,1014.32
2023-03-01T00:04:18.926Z,1014.35
2023-03-01T00:04:28.928Z,1014.26
2023-03-01T00:04:38.967Z,1014.35
2023-03-01T00:04:48.930Z,1014.31
2023-03-01T00:04:58.927Z,1014.36
2023-03-01T00:05:08.974Z,1014.34
2023-03-01T00:05:18.943Z,1014.32
2023-03-01T00:05:29.458Z,1014.35
2023-03-01T00:05:38.936Z,1014.35
2023-03-01T00:05:48.937Z,1014.37
2023-03-01T00:05:58.975Z,1014.34
2023-03-01T00:06:08.957Z,1014.35
2023-03-01T00:06:19.529Z,1014.33
2023-03-01T00:06:29.406Z,1014.34
2023-03-01T00:06:38.982Z,1014.36
2023-03-01T00:06:48.936Z,1014.29
2023-03-01T00:06:58.960Z,1014.34
2023-03-01T00:07:08.919Z,1014.37
2023-03-01T00:07:18.916Z,1014.32
2023-03-01T00:07:28.923Z,1014.32
2023-03-01T00:07:38.952Z,1014.35
2023-03-01T00:07:48.927Z,1014.34
2023-03-01T00:07:58.955Z,1014.34
2023-03-01T00:08:08.932Z,1014.37
2023-03-01T00:08:19.025Z,1014.35
2023-03-01T00:08:28.925Z,1014.35
2023-03-01T00:08:38.944Z,1014.38
2023-03-01T00:08:48.926Z,1014.35
2023-03-01T00:08:58.972Z,1014.37
2023-03-01T00:09:08.923Z,1014.35
2023-03-01T00:09:18.925Z,1014.36
2023-03-01T00:09:28.947Z,1014.35
2023-03-01T00:09:38.920Z,1014.38
2023-03-01T00:09:48.925Z,1014.37
2023-03-01T00:09:58.952Z,1014.36
2023-03-01T00:10:08.968Z,1014.35
2023-03-01T00:10:19.061Z,1014.32
2023-03-01T00:10:28.936Z,1014.33
2023-03-01T00:10:38.910Z,1014.39
2023-03-01T00:10:48.942Z,1014.35
2023-03-01T00:10:58.930Z,1014.33
2023-03-01T00:11:08.947Z,1014.31
2023-03-01T00:11:19.008Z,1014.32
2023-03-01T00:11:29.008Z,1014.32
2023-03-01T00:11:39.524Z,1014.33
2023-03-01T00:11:48.981Z,1014.33
2023-03-01T00:11:59.513Z,1014.30
2023-03-01T00:12:09.453Z,1014.34
2023-03-01T00:12:19.076Z,1014.31
2023-03-01T00:12:28.912Z,1014.31
2023-03-01T00:12:39.494Z,1014.24
2023-03-01T00:12:48.911Z,1014.28
2023-03-01T00:12:58.914Z,1014.28
2023-03-01T00:13:08.912Z,1014.29
2023-03-01T00:13:18.925Z,1014.25
2023-03-01T00:13:28.960Z,1014.29
2023-03-01T00:13:38.925Z,1014.31
2023-03-01T00:13:49.014Z,1014.29
2023-03-01T00:13:58.911Z,1014.25
2023-03-01T00:14:08.893Z,1014.28
2023-03-01T00:14:18.947Z,1014.30
2023-03-01T00:14:28.903Z,1014.26
2023-03-01T00:14:38.918Z,1014.28
2023-03-01T00:14:48.891Z,1014.31
2023-03-01T00:14:58.891Z,1014.29
2023-03-01T00:15:08.901Z,1014.28
2023-03-01T00:15:18.886Z,1014.28
2023-03-01T00:15:28.935Z,1014.26
2023-03-01T00:15:38.940Z,1014.28
2023-03-01T00:15:48.915Z,1014.25
2023-03-01T00:15:58.897Z,1014.22
2023-03-01T00:16:08.929Z,1014.25
2023-03-01T00:16:18.950Z,1014.26
2023-03-01T00:16:29.345Z,1014.26
2023-03-01T00:16:38.974Z,1014.24
2023-03-01T00:16:48.967Z,1014.22
2023-03-01T00:16:58.944Z,1014.25
2023-03-01T00:17:09.004Z,1014.24
2023-03-01T00:17:18.907Z,1014.29
2023-03-01T00:17:28.884Z,1014.27
2023-03-01T00:17:38.908Z,1014.27
2023-03-01T00:17:48.880Z,1014.29
2023-03-01T00:17:58.891Z,1014.27
2023-03-01T00:18:08.897Z,1014.27
2023-03-01T00:18:18.884Z,1014.25
2023-03-01T00:18:29.036Z,1014.24
2023-03-01T00:18:38.912Z,1014.28
2023-03-01T00:18:48.904Z,1014.24
2023-03-01T00:18:58.893Z,1014.28
2023-03-01T00:19:08.929Z,1014.27
2023-03-01T00:19:18.986Z,1014.25
2023-03-01T00:19:28.890Z,1014.26
2023-03-01T00:19:38.906Z,1014.27
2023-03-01T00:19:48.899Z,1014.25
2023-03-01T00:19:58.891Z,1014.24
2023-03-01T00:20:08.966Z,1014.24
2023-03-01T00:20:18.890Z,1014.24
2023-03-01T00:20:29.035Z,1014.28
2023-03-01T00:20:38.877Z,1014.27
2023-03-01T00:20:48.905Z,1014.27
2023-03-01T00:20:58.904Z,1014.25
2023-03-01T00:21:08.963Z,1014.23
2023-03-01T00:21:19.508Z,1014.26
2023-03-01T00:21:28.885Z,1014.26
2023-03-01T00:21:38.872Z,1014.33
2023-03-01T00:21:48.924Z,1014.32
2023-03-01T00:21:58.887Z,1014.30
2023-03-01T00:22:09.463Z,1014.31
2023-03-01T00:22:18.881Z,1014.24
2023-03-01T00:22:28.951Z,1014.31
2023-03-01T00:22:38.930Z,1014.34
2023-03-01T00:22:48.888Z,1014.31
2023-03-01T00:22:58.890Z,1014.31
2023-03-01T00:23:08.856Z,1014.29
2023-03-01T00:23:18.945Z,1014.28
2023-03-01T00:23:28.884Z,1014.33
2023-03-01T00:23:38.937Z,1014.32
2023-03-01T00:23:48.868Z,1014.35
2023-03-01T00:23:58.854Z,1014.29
2023-03-01T00:24:08.886Z,1014.35
2023-03-01T00:24:18.865Z,1014.35
2023-03-01T00:24:28.859Z,1014.31
2023-03-01T00:24:39.477Z,1014.31
2023-03-01T00:24:48.975Z,1014.28
2023-03-01T00:24:58.875Z,1014.34
2023-03-01T00:25:08.911Z,1014.29
2023-03-01T00:25:18.883Z,1014.32
2023-03-01T00:25:28.871Z,1014.28
2023-03-01T00:25:38.865Z,1014.34
2023-03-01T00:25:48.901Z,1014.31
2023-03-01T00:25:58.888Z,1014.32
2023-03-01T00:26:08.852Z,1014.30
2023-03-01T00:26:18.901Z,1014.35
2023-03-01T00:26:29.394Z,1014.35
2023-03-01T00:26:38.881Z,1014.37
2023-03-01T00:26:48.948Z,1014.34
2023-03-01T00:26:58.984Z,1014.35
2023-03-01T00:27:08.861Z,1014.35
2023-03-01T00:27:18.888Z,1014.37
2023-03-01T00:27:28.893Z,1014.31
2023-03-01T00:27:38.867Z,1014.30
2023-03-01T00:27:48.852Z,1014.35
2023-03-01T00:27:58.885Z,1014.33
2023-03-01T00:28:08.839Z,1014.35
2023-03-01T00:28:19.026Z,1014.34
2023-03-01T00:28:28.862Z,1014.35
2023-03-01T00:28:38.889Z,1014.34
2023-03-01T00:28:49.472Z,1014.35
2023-03-01T00:28:58.876Z,1014.33
2023-03-01T00:29:08.869Z,1014.35
2023-03-01T00:29:18.860Z,1014.33
2023-03-01T00:29:28.860Z,1014.32
2023-03-01T00:29:38.883Z,1014.32
2023-03-01T00:29:48.874Z,1014.32
2023-03-01T00:29:58.847Z,1014.32
2023-03-01T00:30:08.846Z,1014.31
2023-03-01T00:30:18.848Z,1014.29
2023-03-01T00:30:28.880Z,1014.28
2023-03-01T00:30:38.871Z,1014.33
2023-03-01T00:30:49.007Z,1014.29
2023-03-01T00:30:59.541Z,1014.28
2023-03-01T00:31:08.968Z,1014.31
2023-03-01T00:31:18.892Z,1014.29
2023-03-01T00:31:28.848Z,1014.32
2023-03-01T00:31:38.864Z,1014.30
2023-03-01T00:31:48.886Z,1014.33
2023-03-01T00:31:58.869Z,1014.30
2023-03-01T00:32:09.018Z,1014.31
2023-03-01T00:32:18.916Z,1014.30
2023-03-01T00:32:28.878Z,1014.31
2023-03-01T00:32:38.925Z,1014.33
2023-03-01T00:32:48.845Z,1014.29
2023-03-01T00:32:59.477Z,1014.35
2023-03-01T00:33:08.995Z,1014.33
2023-03-01T00:33:18.901Z,1014.35
2023-03-01T00:33:28.822Z,1014.34
2023-03-01T00:33:38.990Z,1014.35
2023-03-01T00:33:48.824Z,1014.33
2023-03-01T00:33:58.848Z,1014.33
2023-03-01T00:34:08.830Z,1014.37
2023-03-01T00:34:18.860Z,1014.34
2023-03-01T00:34:28.830Z,1014.35
2023-03-01T00:34:38.868Z,1014.34
2023-03-01T00:34:48.837Z,1014.34
2023-03-01T00:34:58.927Z,1014.32
2023-03-01T00:35:08.914Z,1014.38
2023-03-01T00:35:18.888Z,1014.33
2023-03-01T00:35:28.889Z,1014.35
2023-03-01T00:35:38.918Z,1014.35
2023-03-01T00:35:48.954Z,1014.35
2023-03-01T00:35:58.862Z,1014.37
2023-03-01T00:36:08.888Z,1014.40
2023-03-01T00:36:18.858Z,1014.38
2023-03-01T00:36:29.651Z,1014.35
2023-03-01T00:36:38.896Z,1014.35
2023-03-01T00:36:49.501Z,1014.36
2023-03-01T00:36:58.870Z,1014.34
2023-03-01T00:37:09.553Z,1014.33
2023-03-01T00:37:18.940Z,1014.37
2023-03-01T00:37:28.846Z,1014.33
2023-03-01T00:37:38.830Z,1014.34
2023-03-01T00:37:48.926Z,1014.34
2023-03-01T00:37:58.889Z,1014.35
2023-03-01T00:38:08.829Z,1014.35
2023-03-01T00:38:18.846Z,1014.34
2023-03-01T00:38:28.879Z,1014.34
2023-03-01T00:38:38.831Z,1014.35
2023-03-01T00:38:48.827Z,1014.34
2023-03-01T00:38:59.491Z,1014.33
2023-03-01T00:39:08.856Z,1014.33
2023-03-01T00:39:18.915Z,1014.33
2023-03-01T00:39:28.809Z,1014.30
2023-03-01T00:39:38.805Z,1014.32
2023-03-01T00:39:48.830Z,1014.37
2023-03-01T00:39:58.877Z,1014.32
2023-03-01T00:40:08.849Z,1014.31
2023-03-01T00:40:18.882Z,1014.30
2023-03-01T00:40:28.839Z,1014.28
2023-03-01T00:40:38.853Z,1014.28
2023-03-01T00:40:48.836Z,1014.29
2023-03-01T00:40:58.823Z,1014.27
2023-03-01T00:41:08.864Z,1014.27
2023-03-01T00:41:19.499Z,1014.27
2023-03-01T00:41:28.925Z,1014.27
2023-03-01T00:41:38.809Z,1014.24
2023-03-01T00:41:48.897Z,1014.23
2023-03-01T00:41:58.800Z,1014.25
2023-03-01T00:42:08.830Z,1014.24
2023-03-01T00:42:18.810Z,1014.18
2023-03-01T00:42:28.869Z,1014.20
2023-03-01T00:42:38.825Z,1014.23
2023-03-01T00:42:48.819Z,1014.21
2023-03-01T00:42:58.856Z,1014.21
2023-03-01T00:43:08.847Z,1014.23
2023-03-01T00:43:18.864Z,1014.20
2023-03-01T00:43:28.842Z,1014.25
2023-03-01T00:43:38.799Z,1014.20
2023-03-01T00:43:48.868Z,1014.21
2023-03-01T00:43:58.815Z,1014.24
2023-03-01T00:44:08.828Z,1014.14
2023-03-01T00:44:18.871Z,1014.19
2023-03-01T00:44:28.865Z,1014.15
2023-03-01T00:44:38.901Z,1014.22
2023-03-01T00:44:48.804Z,1014.19
2023-03-01T00:44:58.821Z,1014.18
2023-03-01T00:45:08.885Z,1014.22
2023-03-01T00:45:18.883Z,1014.20
2023-03-01T00:45:28.877Z,1014.21
2023-03-01T00:45:38.893Z,1014.22
2023-03-01T00:45:48.896Z,1014.21
2023-03-01T00:45:58.843Z,1014.19
2023-03-01T00:46:08.856Z,1014.21
2023-03-01T00:46:18.875Z,1014.20
2023-03-01T00:46:29.185Z,1014.20
2023-03-01T00:46:38.899Z,1014.20
2023-03-01T00:46:48.824Z,1014.15
2023-03-01T00:46:58.819Z,1014.18
2023-03-01T00:47:08.814Z,1014.15
2023-03-01T00:47:18.820Z,1014.14
2023-03-01T00:47:28.854Z,1014.15
2023-03-01T00:47:39.530Z,1014.22
2023-03-01T00:47:48.797Z,1014.16
2023-03-01T00:47:58.800Z,1014.22
2023-03-01T00:48:08.795Z,1014.18
2023-03-01T00:48:18.845Z,1014.15
2023-03-01T00:48:29.498Z,1014.10
2023-03-01T00:48:38.828Z,1014.14
2023-03-01T00:48:48.799Z,1014.17
2023-03-01T00:48:58.785Z,1014.08
2023-03-01T00:49:08.935Z,1014.15
2023-03-01T00:49:18.865Z,1014.12
2023-03-01T00:49:28.918Z,1014.16
2023-03-01T00:49:38.832Z,1014.14
2023-03-01T00:49:48.802Z,1014.14
2023-03-01T00:49:58.792Z,1014.12
2023-03-01T00:50:08.812Z,1014.11
2023-03-01T00:50:18.768Z,1014.13
2023-03-01T00:50:28.806Z,1014.18
2023-03-01T00:50:38.823Z,1014.14
2023-03-01T00:50:48.826Z,1014.10
2023-03-01T00:50:58.778Z,1014.14
2023-03-01T00:51:08.854Z,1014.14
2023-03-01T00:51:18.780Z,1014.08
2023-03-01T00:51:28.825Z,1014.12
2023-03-01T00:51:38.801Z,1014.11
2023-03-01T00:51:48.855Z,1014.07
2023-03-01T00:51:58.814Z,1014.07
2023-03-01T00:52:09.041Z,1014.06
2023-03-01T00:52:18.765Z,1014.10
2023-03-01T00:52:28.798Z,1014.03
2023-03-01T00:52:38.821Z,1014.02
2023-03-01T00:52:48.975Z,1014.03
2023-03-01T00:52:58.806Z,1014.01
2023-03-01T00:53:08.807Z,1014.08
2023-03-01T00:53:18.771Z,1014.05
2023-03-01T00:53:28.787Z,1014.05
2023-03-01T00:53:38.864Z,1014.07
2023-03-01T00:53:48.809Z,1014.06
2023-03-01T00:53:58.774Z,1014.04
2023-03-01T00:54:08.811Z,1014.03
2023-03-01T00:54:18.796Z,1014.05
2023-03-01T00:54:28.797Z,1014.07
2023-03-01T00:54:38.759Z,1014.06
2023-03-01T00:54:48.771Z,1014.06
2023-03-01T00:54:58.881Z,1014.04
2023-03-01T00:55:08.744Z,1014.02
2023-03-01T00:55:18.794Z,1014.02
2023-03-01T00:55:28.788Z,1014.01
2023-03-01T00:55:38.755Z,1014.02
2023-03-01T00:55:48.767Z,1014.04
2023-03-01T00:55:58.882Z,1014.04
2023-03-01T00:56:08.763Z,1014.04
2023-03-01T00:56:18.788Z,1014.06
2023-03-01T00:56:29.088Z,1014.03
2023-03-01T00:56:38.790Z,1014.03
2023-03-01T00:56:48.802Z,1014.09
2023-03-01T00:56:58.832Z,1014.02
2023-03-01T00:57:08.771Z,1014.10
2023-03-01T00:57:18.759Z,1014.06
2023-03-01T00:57:28.788Z,1014.05
2023-03-01T00:57:38.770Z,1014.04
2023-03-01T00:57:48.776Z,1014.04
2023-03-01T00:57:59.140Z,1014.06
2023-03-01T00:58:09.487Z,1014.10
2023-03-01T00:58:18.758Z,1014.06
2023-03-01T00:58:28.804Z,1014.10
2023-03-01T00:58:38.934Z,1014.08
2023-03-01T00:58:48.771Z,1014.09
2023-03-01T00:58:58.751Z,1014.10
2023-03-01T00:59:08.772Z,1014.12
2023-03-01T00:59:18.778Z,1014.10
2023-03-01T00:59:28.747Z,1014.07
2023-03-01T00:59:38.752Z,1014.11
2023-03-01T00:59:48.769Z,1014.18
2023-03-01T00:59:59.504Z,1014.11
2023-03-01T01:00:08.920Z,1014.10
2023-03-01T01:00:18.978Z,1014.09
2023-03-01T01:00:28.771Z,1014.11
2023-03-01T01:00:39.099Z,1014.12
2023-03-01T01:00:48.787Z,1014.12
2023-03-01T01:00:58.761Z,1014.10
2023-03-01T01:01:08.862Z,1014.12
2023-03-01T01:01:18.851Z,1014.10
2023-03-01T01:01:28.772Z,1014.14
2023-03-01T01:01:38.830Z,1014.11
2023-03-01T01:01:48.786Z,1014.14
2023-03-01T01:01:58.736Z,1014.13
2023-03-01T01:02:08.797Z,1014.10
2023-03-01T01:02:18.750Z,1014.11
2023-03-01T01:02:28.816Z,1014.14
2023-03-01T01:02:39.515Z,1014.12
2023-03-01T01:02:48.788Z,1014.12
2023-03-01T01:02:58.733Z,1014.12
2023-03-01T01:03:09.209Z,1014.07
2023-03-01T01:03:18.744Z,1014.14
2023-03-01T01:03:28.779Z,1014.09
2023-03-01T01:03:38.738Z,1014.09
2023-03-01T01:03:48.785Z,1014.10
2023-03-01T01:03:58.760Z,1014.13
2023-03-01T01:04:09.513Z,1014.14
2023-03-01T01:04:19.479Z,1014.14
2023-03-01T01:04:28.743Z,1014.08
2023-03-01T01:04:38.734Z,1014.12
2023-03-01T01:04:48.772Z,1014.11
2023-03-01T01:04:58.751Z,1014.12
2023-03-01T01:05:08.786Z,1014.11
2023-03-01T01:05:18.747Z,1014.08
2023-03-01T01:05:28.781Z,1014.08
2023-03-01T01:05:38.783Z,1014.10
2023-03-01T01:05:48.746Z,1014.09
2023-03-01T01:05:58.706Z,1014.06
2023-03-01T01:06:08.731Z,1014.09
2023-03-01T01:06:18.844Z,1014.07
2023-03-01T01:06:29.149Z,1014.09
2023-03-01T01:06:38.745Z,1014.11
2023-03-01T01:06:48.704Z,1014.12
2023-03-01T01:06:58.730Z,1014.10
2023-03-01T01:07:08.746Z,1014.09
2023-03-01T01:07:18.723Z,1014.11
2023-03-01T01:07:28.718Z,1014.08
2023-03-01T01:07:38.713Z,1014.19
2023-03-01T01:07:48.767Z,1014.13
2023-03-01T01:07:58.721Z,1014.06
2023-03-01T01:08:08.722Z,1014.11
2023-03-01T01:08:19.074Z,1014.09
2023-03-01T01:08:28.755Z,1014.10
2023-03-01T01:08:38.703Z,1014.10
2023-03-01T01:08:48.738Z,1014.10
2023-03-01T01:08:58.701Z,1014.09
2023-03-01T01:09:08.744Z,1014.03
2023-03-01T01:09:18.784Z,1014.07
2023-03-01T01:09:28.878Z,1014.05
2023-03-01T01:09:38.745Z,1014.07
2023-03-01T01:09:48.744Z,1014.12
2023-03-01T01:09:58.783Z,1014.14
2023-03-01T01:10:08.743Z,1014.10
2023-03-01T01:10:18.749Z,1014.13
2023-03-01T01:10:29.504Z,1014.12
2023-03-01T01:10:38.800Z,1014.06
2023-03-01T01:10:48.924Z,1014.02
2023-03-01T01:10:58.728Z,1014.04
2023-03-01T01:11:09.536Z,1014.11
2023-03-01T01:11:18.713Z,1014.08
2023-03-01T01:11:28.765Z,1014.11
2023-03-01T01:11:38.810Z,1014.13
2023-03-01T01:11:48.706Z,1014.12
2023-03-01T01:11:58.729Z,1014.09
2023-03-01T01:12:08.725Z,1014.15
2023-03-01T01:12:18.760Z,1014.17
2023-03-01T01:12:28.736Z,1014.13
2023-03-01T01:12:38.757Z,1014.11
2023-03-01T01:12:48.797Z,1014.18
2023-03-01T01:12:58.945Z,1014.15
2023-03-01T01:13:08.676Z,1014.14
2023-03-01T01:13:18.803Z,1014.16
2023-03-01T01:13:29.126Z,1014.12
2023-03-01T01:13:38.893Z,1014.07
2023-03-01T01:13:48.695Z,1014.17
2023-03-01T01:13:58.713Z,1014.10
2023-03-01T01:14:08.789Z,1014.12
2023-03-01T01:14:18.702Z,1014.10
2023-03-01T01:14:28.726Z,1014.14
2023-03-01T01:14:38.882Z,1014.13
2023-03-01T01:14:48.750Z,1014.14
2023-03-01T01:14:58.685Z,1014.17
2023-03-01T01:15:08.969Z,1014.12
2023-03-01T01:15:18.801Z,1014.13
2023-03-01T01:15:28.795Z,1014.13
2023-03-01T01:15:38.729Z,1014.12
2023-03-01T01:15:48.775Z,1014.11
2023-03-01T01:15:58.790Z,1014.12
2023-03-01T01:16:08.819Z,1014.13
2023-03-01T01:16:18.703Z,1014.13
2023-03-01T01:16:29.313Z,1014.12
2023-03-01T01:16:38.734Z,1014.15
2023-03-01T01:16:48.764Z,1014.14
2023-03-01T01:16:58.713Z,1014.14
2023-03-01T01:17:08.714Z,1014.13
2023-03-01T01:17:18.731Z,1014.13
2023-03-01T01:17:28.663Z,1014.14
2023-03-01T01:17:38.867Z,1014.10
2023-03-01T01:17:48.722Z,1014.16
2023-03-01T01:17:58.711Z,1014.05
2023-03-01T01:18:08.968Z,1014.16
2023-03-01T01:18:19.557Z,1014.11
2023-03-01T01:18:28.668Z,1014.10
2023-03-01T01:18:38.748Z,1014.10
2023-03-01T01:18:48.748Z,1014.07
2023-03-01T01:18:58.813Z,1014.08
2023-03-01T01:19:08.872Z,1014.04
2023-03-01T01:19:18.756Z,1014.10
2023-03-01T01:19:28.788Z,1014.09
2023-03-01T01:19:38.814Z,1014.09
2023-03-01T01:19:48.817Z,1014.12
2023-03-01T01:19:58.706Z,1014.04
2023-03-01T01:20:08.828Z,1014.02
2023-03-01T01:20:18.720Z,1014.02
2023-03-01T01:20:28.695Z,1014.11
2023-03-01T01:20:38.725Z,1014.10
2023-03-01T01:20:48.837Z,1014.10
2023-03-01T01:20:59.485Z,1014.10
2023-03-01T01:21:08.698Z,1014.04
2023-03-01T01:21:18.659Z,1014.06
2023-03-01T01:21:28.693Z,1014.05
2023-03-01T01:21:38.731Z,1014.06
2023-03-01T01:21:48.710Z,1014.04
2023-03-01T01:21:58.762Z,1014.05
2023-03-01T01:22:08.833Z,1014.02
2023-03-01T01:22:18.752Z,1014.02
2023-03-01T01:22:28.685Z,1013.99
2023-03-01T01:22:38.688Z,1014.01
2023-03-01T01:22:48.638Z,1014.05
2023-03-01T01:22:58.735Z,1014.01
2023-03-01T01:23:08.801Z,1014.03
2023-03-01T01:23:18.688Z,1014.01
2023-03-01T01:23:28.715Z,1014.04
2023-03-01T01:23:38.639Z,1014.05
2023-03-01T01:23:48.712Z,1014.01
2023-03-01T01:23:58.688Z,1013.98
2023-03-01T01:24:08.691Z,1013.99
2023-03-01T01:24:18.719Z,1013.99
2023-03-01T01:24:28.746Z,1013.98
2023-03-01T01:24:39.539Z,1014.00
2023-03-01T01:24:48.659Z,1014.00
2023-03-01T01:24:58.766Z,1013.98
2023-03-01T01:25:08.724Z,1014.07
2023-03-01T01:25:18.799Z,1014.04
2023-03-01T01:25:28.709Z,1013.96
2023-03-01T01:25:38.641Z,1014.03
2023-03-01T01:25:48.635Z,1014.07
2023-03-01T01:25:58.720Z,1014.02
2023-03-01T01:26:08.734Z,1014.01
2023-03-01T01:26:19.517Z,1014.01
2023-03-01T01:26:29.139Z,1014.03
2023-03-01T01:26:38.716Z,1014.02
2023-03-01T01:26:48.680Z,1014.05
2023-03-01T01:26:58.728Z,1014.05
2023-03-01T01:27:08.945Z,1014.05
2023-03-01T01:27:18.699Z,1014.05
2023-03-01T01:27:28.812Z,1014.03
2023-03-01T01:27:39.518Z,1014.01
2023-03-01T01:27:48.662Z,1014.02
2023-03-01T01:27:58.648Z,1013.98
2023-03-01T01:28:08.724Z,1014.02
2023-03-01T01:28:18.656Z,1014.01
2023-03-01T01:28:28.688Z,1014.03
2023-03-01T01:28:38.667Z,1013.97
2023-03-01T01:28:48.641Z,1014.02
2023-03-01T01:28:58.754Z,1014.00
2023-03-01T01:29:08.648Z,1014.03
2023-03-01T01:29:18.657Z,1014.00
2023-03-01T01:29:28.634Z,1013.99
2023-03-01T01:29:39.439Z,1014.05
2023-03-01T01:29:48.702Z,1013.93
2023-03-01T01:29:58.622Z,1013.94
2023-03-01T01:30:08.624Z,1013.93
2023-03-01T01:30:18.616Z,1013.97
2023-03-01T01:30:28.657Z,1013.97
2023-03-01T01:30:38.663Z,1013.93
2023-03-01T01:30:48.635Z,1013.93
2023-03-01T01:30:59.545Z,1013.91
2023-03-01T01:31:08.742Z,1013.98
2023-03-01T01:31:18.702Z,1013.97
2023-03-01T01:31:29.622Z,1013.96
2023-03-01T01:31:38.660Z,1013.94
2023-03-01T01:31:48.655Z,1013.87
2023-03-01T01:31:58.714Z,1013.92
2023-03-01T01:32:08.772Z,1013.87
2023-03-01T01:32:18.681Z,1013.90
2023-03-01T01:32:28.759Z,1013.93
2023-03-01T01:32:38.615Z,1013.88
2023-03-01T01:32:48.627Z,1013.89
2023-03-01T01:32:58.863Z,1013.91
2023-03-01T01:33:08.746Z,1013.88
2023-03-01T01:33:18.616Z,1013.86
2023-03-01T01:33:29.681Z,1013.88
2023-03-01T01:33:38.596Z,1013.86
2023-03-01T01:33:48.854Z,1013.89
2023-03-01T01:33:58.648Z,1013.86
2023-03-01T01:34:08.902Z,1013.87
2023-03-01T01:34:18.618Z,1013.88
2023-03-01T01:34:28.609Z,1013.83
2023-03-01T01:34:38.600Z,1013.88
2023-03-01T01:34:48.641Z,1013.86
2023-03-01T01:34:58.648Z,1013.86
2023-03-01T01:35:08.608Z,1013.84
2023-03-01T01:35:18.643Z,1013.87
2023-03-01T01:35:28.703Z,1013.87
2023-03-01T01:35:38.808Z,1013.88
2023-03-01T01:35:48.964Z,1013.88
2023-03-01T01:35:58.698Z,1013.87
2023-03-01T01:36:08.624Z,1013.85
2023-03-01T01:36:18.611Z,1013.85
2023-03-01T01:36:29.078Z,1013.84
2023-03-01T01:36:38.645Z,1013.87
2023-03-01T01:36:49.471Z,1013.87
2023-03-01T01:36:58.784Z,1013.85
2023-03-01T01:37:08.619Z,1013.86
2023-03-01T01:37:18.600Z,1013.86
2023-03-01T01:37:28.595Z,1013.88
2023-03-01T01:37:38.620Z,1013.87
2023-03-01T01:37:48.815Z,1013.84
2023-03-01T01:37:58.649Z,1013.86
2023-03-01T01:38:08.747Z,1013.86
2023-03-01T01:38:18.606Z,1013.89
2023-03-01T01:38:28.596Z,1013.89
2023-03-01T01:38:38.597Z,1013.88
2023-03-01T01:38:48.585Z,1013.92
2023-03-01T01:38:58.581Z,1013.85
2023-03-01T01:39:08.588Z,1013.86
2023-03-01T01:39:19.092Z,1013.89
2023-03-01T01:39:28.586Z,1013.87
2023-03-01T01:39:38.587Z,1013.91
2023-03-01T01:39:48.754Z,1013.90
2023-03-01T01:39:58.586Z,1013.89
2023-03-01T01:40:08.601Z,1013.91
2023-03-01T01:40:18.630Z,1013.85
2023-03-01T01:40:28.590Z,1013.92
2023-03-01T01:40:38.589Z,1013.89
2023-03-01T01:40:48.633Z,1013.91
2023-03-01T01:40:58.602Z,1013.88
2023-03-01T01:41:08.601Z,1013.87
2023-03-01T01:41:18.648Z,1013.88
2023-03-01T01:41:28.696Z,1013.88
2023-03-01T01:41:39.565Z,1013.89
2023-03-01T01:41:48.644Z,1013.85
2023-03-01T01:41:58.698Z,1013.85
2023-03-01T01:42:08.569Z,1013.86
2023-03-01T01:42:18.594Z,1013.85
2023-03-01T01:42:28.616Z,1013.82
2023-03-01T01:42:38.620Z,1013.86
2023-03-01T01:42:48.579Z,1013.85
2023-03-01T01:42:58.599Z,1013.82
2023-03-01T01:43:08.601Z,1013.79
2023-03-01T01:43:18.616Z,1013.84
2023-03-01T01:43:28.613Z,1013.89
2023-03-01T01:43:38.631Z,1013.80
2023-03-01T01:43:48.606Z,1013.82
2023-03-01T01:43:58.636Z,1013.81
2023-03-01T01:44:08.559Z,1013.82
2023-03-01T01:44:18.715Z,1013.86
2023-03-01T01:44:28.615Z,1013.83
2023-03-01T01:44:38.589Z,1013.84
2023-03-01T01:44:48.809Z,1013.81
2023-03-01T01:44:58.616Z,1013.83
2023-03-01T01:45:08.711Z,1013.81
2023-03-01T01:45:18.754Z,1013.84
2023-03-01T01:45:28.745Z,1013.82
2023-03-01T01:45:38.570Z,1013.84
2023-03-01T01:45:48.764Z,1013.80
2023-03-01T01:45:59.548Z,1013.82
2023-03-01T01:46:08.629Z,1013.85
2023-03-01T01:46:18.588Z,1013.82
2023-03-01T01:46:29.120Z,1013.85
2023-03-01T01:46:38.654Z,1013.87
2023-03-01T01:46:48.645Z,1013.84
2023-03-01T01:46:58.602Z,1013.83
2023-03-01T01:47:08.586Z,1013.86
2023-03-01T01:47:18.611Z,1013.86
2023-03-01T01:47:28.643Z,1013.85
2023-03-01T01:47:38.709Z,1013.86
2023-03-01T01:47:48.576Z,1013.81
2023-03-01T01:47:58.557Z,1013.84
2023-03-01T01:48:08.680Z,1013.85
2023-03-01T01:48:18.716Z,1013.86
2023-03-01T01:48:28.577Z,1013.85
2023-03-01T01:48:38.596Z,1013.82
2023-03-01T01:48:48.539Z,1013.88
2023-03-01T01:48:58.561Z,1013.85
2023-03-01T01:49:08.564Z,1013.87
2023-03-01T01:49:18.574Z,1013.83
2023-03-01T01:49:28.615Z,1013.85
2023-03-01T01:49:38.612Z,1013.83
2023-03-01T01:49:48.625Z,1013.88
2023-03-01T01:49:58.560Z,1013.82
2023-03-01T01:50:09.471Z,1013.84
2023-03-01T01:50:18.642Z,1013.84
2023-03-01T01:50:28.578Z,1013.89
2023-03-01T01:50:38.556Z,1013.88
2023-03-01T01:50:48.565Z,1013.89
2023-03-01T01:50:58.528Z,1013.91
2023-03-01T01:51:08.606Z,1013.87
2023-03-01T01:51:18.773Z,1013.97
2023-03-01T01:51:28.571Z,1013.95
2023-03-01T01:51:38.573Z,1013.86
2023-03-01T01:51:49.492Z,1013.84
2023-03-01T01:51:58.633Z,1013.85
2023-03-01T01:52:08.586Z,1013.93
2023-03-01T01:52:18.607Z,1013.94
2023-03-01T01:52:28.585Z,1013.95
2023-03-01T01:52:38.534Z,1013.92
2023-03-01T01:52:48.559Z,1013.98
2023-03-01T01:52:58.699Z,1013.91
2023-03-01T01:53:08.585Z,1013.99
2023-03-01T01:53:18.549Z,1013.95
2023-03-01T01:53:28.705Z,1013.94
2023-03-01T01:53:38.531Z,1013.98
2023-03-01T01:53:48.558Z,1013.95
2023-03-01T01:53:58.550Z,1013.93
2023-03-01T01:54:08.587Z,1013.92
2023-03-01T01:54:19.489Z,1013.91
2023-03-01T01:54:28.658Z,1013.94
2023-03-01T01:54:38.538Z,1013.95
2023-03-01T01:54:48.629Z,1013.90
2023-03-01T01:54:58.531Z,1013.90
2023-03-01T01:55:08.550Z,1013.85
2023-03-01T01:55:18.573Z,1013.95
2023-03-01T01:55:28.591Z,1013.92
2023-03-01T01:55:38.536Z,1013.83
2023-03-01T01:55:48.524Z,1013.88
2023-03-01T01:55:59.528Z,1013.88
2023-03-01T01:56:08.547Z,1013.91
2023-03-01T01:56:19.571Z,1013.87
2023-03-01T01:56:28.933Z,1013.80
2023-03-01T01:56:38.552Z,1013.91
2023-03-01T01:56:48.522Z,1013.88
2023-03-01T01:56:58.512Z,1013.86
2023-03-01T01:57:08.574Z,1013.87
2023-03-01T01:57:18.747Z,1013.85
2023-03-01T01:57:28.636Z,1013.79
2023-03-01T01:57:38.558Z,1013.79
2023-03-01T01:57:48.530Z,1013.84
2023-03-01T01:57:58.517Z,1013.79
2023-03-01T01:58:08.530Z,1013.79
2023-03-01T01:58:18.531Z,1013.84
2023-03-01T01:58:28.605Z,1013.78
2023-03-01T01:58:38.560Z,1013.78
2023-03-01T01:58:48.531Z,1013.85
2023-03-01T01:58:58.518Z,1013.82
2023-03-01T01:59:08.509Z,1013.85
2023-03-01T01:59:18.506Z,1013.81
2023-03-01T01:59:28.527Z,1013.86
2023-03-01T01:59:38.515Z,1013.77
2023-03-01T01:59:48.538Z,1013.81
2023-03-01T01:59:58.589Z,1013.81
2023-03-01T02:00:08.514Z,1013.82
2023-03-01T02:00:18.510Z,1013.79
2023-03-01T02:00:31.819Z,1013.89
2023-03-01T02:00:38.627Z,1013.80
2023-03-01T02:00:48.511Z,1013.82
2023-03-01T02:00:58.500Z,1013.83